Airfield :
LOGIN :

Register | Disclaimer

   EN    FR    IT 

 










Legend :    VFR   Marginal VFR   IFR   Intensive IFR   Very Intensive IFR
Visi :
Ceiling :
>= 8 km
>= 3000ft
5 to 8 km
1000 to 3000 ft
1500m to 5 km
500 to 1000 ft
800 to 1500m
200 to 500 ft
< 800m
< 200 ft
Symbols :   Thunderstorms  Fog  Heavy snow  Heavy precipitations  Wind > 20 kt
SIGMETs :     Misc.  Thunderstorms  Icing  Turbulence  Mountain Waves  Volcanic Ashes







- Airport Elevation : 425 ft
- IATA code : DTM


EDLW - Dortmund

CURRENT METAR :
  • 210050Z AUTO 28007KT 240V350 2400 // BKN002/// 13/13 Q1007

EXPIRED METARs :
  • 210020Z AUTO 30006KT 220V010 4100 // OVC004/// 13/13 Q1007
  • 202350Z AUTO 30008KT 230V350 6000 // OVC007/// 14/12 Q1007
  • 202320Z AUTO 29006KT 220V360 8000 // OVC010/// 14/12 Q1007
  • 202250Z AUTO 29005KT 230V360 9000 // OVC011/// 14/13 Q1007
  • 202220Z AUTO 28005KT 210V330 9999 // OVC011/// 14/13 Q1007

TAF TAF EDLW
Valid from the 20 at 18:00 until the 21 at 18:00 UTC


201700Z 2018/2118 28007KT 9999 OVC020
BECMG 2021/2024 BKN009
BECMG 2102/2104 2000 -RA BR BKN004
TEMPO 2106/2111 0800 FG
BECMG 2113/2115 BKN012
No reported NOTAMs for that airfield.



MET'MAP, your aeronautical weather chart ! - Copyright ORBIFLY December 2007 - Disclaimer

ORBIFLY MET'MAP TEAM :

Programming & Development : Alexandra Zaïnal
Concept & Development : Baudouin d'Aumeries
Co-Development & Prog : Marc-Olivier Méhu
Technical & hardware support : Manuel Goepfert

Contact : metmap@orbifly.com




SOURCES & CREDITS :

   NOAA